createdAt,value
2019-03-19T00:01:52.814Z,100873.49
2019-03-19T00:04:55.735Z,100870.78
2019-03-19T00:07:58.988Z,100871.56
2019-03-19T00:11:02.342Z,100874.68
2019-03-19T00:14:06.019Z,100871.87
2019-03-19T00:17:10.118Z,100864.95
2019-03-19T00:20:13.033Z,100872.36
2019-03-19T00:23:16.584Z,100867.16
2019-03-19T00:26:20.176Z,100861.84
2019-03-19T00:29:23.823Z,100859.55
2019-03-19T00:32:26.746Z,100863.39
2019-03-19T00:35:29.773Z,100873.00
2019-03-19T00:38:32.695Z,100874.64
2019-03-19T00:41:37.003Z,100882.41
2019-03-19T00:44:40.263Z,100876.63
2019-03-19T00:47:43.579Z,100877.36
2019-03-19T00:50:46.521Z,100883.42
2019-03-19T00:53:49.522Z,100891.78
2019-03-19T00:56:52.459Z,100886.20
2019-03-19T00:59:55.709Z,100884.05
2019-03-19T01:02:58.950Z,100880.25
2019-03-19T01:06:02.192Z,100883.40
2019-03-19T01:09:06.785Z,100892.71
2019-03-19T01:12:10.229Z,100895.39
2019-03-19T01:15:13.624Z,100882.52
2019-03-19T01:18:16.553Z,100888.41
2019-03-19T01:21:19.509Z,100893.55
2019-03-19T01:24:23.122Z,100886.98
2019-03-19T01:27:26.055Z,100892.20
2019-03-19T01:30:29.539Z,100893.31
2019-03-19T01:33:33.212Z,100904.07
2019-03-19T01:36:36.402Z,100913.05
2019-03-19T01:39:39.381Z,100910.62
2019-03-19T01:42:43.041Z,100914.25
2019-03-19T01:45:45.977Z,100924.41
2019-03-19T01:48:48.927Z,100919.17
2019-03-19T01:51:52.225Z,100929.00
2019-03-19T01:54:55.382Z,100918.90
2019-03-19T01:57:58.574Z,100909.88
2019-03-19T02:01:01.909Z,100915.41
2019-03-19T02:04:05.583Z,100916.25
2019-03-19T02:07:08.511Z,100913.86
2019-03-19T02:10:11.823Z,100909.95
2019-03-19T02:13:16.016Z,100920.72
2019-03-19T02:16:18.964Z,100915.97
2019-03-19T02:19:21.970Z,100924.25
2019-03-19T02:22:26.215Z,100922.73
2019-03-19T02:25:29.595Z,100922.97
2019-03-19T02:28:33.105Z,100933.27
2019-03-19T02:31:36.355Z,100936.97
2019-03-19T02:34:39.679Z,100938.65
2019-03-19T02:37:42.946Z,100940.59
2019-03-19T02:40:46.222Z,100945.09
2019-03-19T02:43:49.752Z,100945.27
2019-03-19T02:46:53.737Z,100936.56
2019-03-19T02:49:57.072Z,100944.17
2019-03-19T02:53:00.013Z,100949.17
2019-03-19T02:56:03.383Z,100951.05
2019-03-19T02:59:07.373Z,100961.06
2019-03-19T03:02:11.189Z,100972.20
2019-03-19T03:05:14.268Z,100976.67
2019-03-19T03:08:17.527Z,100991.33
2019-03-19T03:11:20.468Z,100988.88
2019-03-19T03:14:24.031Z,100978.27
2019-03-19T03:17:27.306Z,100983.22
2019-03-19T03:20:31.145Z,100991.58
2019-03-19T03:23:34.442Z,100993.30
2019-03-19T03:26:47.888Z,100994.88
2019-03-19T03:29:43.464Z,100994.48
2019-03-19T03:32:46.822Z,100985.52
2019-03-19T03:35:49.808Z,100985.13
2019-03-19T03:38:53.131Z,100992.11
2019-03-19T03:41:56.056Z,101000.51
2019-03-19T03:44:59.797Z,100998.55
2019-03-19T03:48:03.090Z,101002.16
2019-03-19T03:51:06.644Z,101012.76
2019-03-19T03:54:09.970Z,101018.16
2019-03-19T03:57:14.234Z,101014.54
2019-03-19T04:00:17.845Z,101018.45
2019-03-19T04:03:20.788Z,101010.52
2019-03-19T04:06:24.411Z,101010.84
2019-03-19T04:09:27.879Z,101020.22
2019-03-19T04:12:31.237Z,101026.16
2019-03-19T04:15:34.141Z,101018.12
2019-03-19T04:18:37.370Z,101020.45
2019-03-19T04:21:40.609Z,101023.41
2019-03-19T04:24:44.828Z,101028.67
2019-03-19T04:27:48.155Z,101022.47
2019-03-19T04:30:51.065Z,101024.95
2019-03-19T04:33:54.321Z,101025.83
2019-03-19T04:36:57.609Z,101025.88
2019-03-19T04:40:02.223Z,101033.22
2019-03-19T04:43:05.970Z,101040.82
2019-03-19T04:46:09.212Z,101046.09
2019-03-19T04:49:12.438Z,101050.30
2019-03-19T04:52:15.720Z,101052.07
2019-03-19T04:55:18.871Z,101052.58
2019-03-19T04:58:22.129Z,101054.18
2019-03-19T05:01:25.418Z,101052.67
2019-03-19T05:04:28.816Z,101060.30
2019-03-19T05:07:32.252Z,101062.22
2019-03-19T05:10:36.957Z,101068.34
2019-03-19T05:13:39.892Z,101077.64
2019-03-19T05:16:43.577Z,101070.44
2019-03-19T05:19:46.812Z,101069.55
2019-03-19T05:22:50.320Z,101075.53
2019-03-19T05:25:53.602Z,101071.80
2019-03-19T05:28:56.741Z,101072.49
2019-03-19T05:32:00.053Z,101075.77
2019-03-19T05:35:03.435Z,101072.72
2019-03-19T05:38:06.702Z,101073.70
2019-03-19T05:41:09.905Z,101076.56
2019-03-19T05:44:14.273Z,101077.48
2019-03-19T05:47:17.600Z,101081.80
2019-03-19T05:50:20.619Z,101081.43
2019-03-19T05:53:23.860Z,101071.34
2019-03-19T05:56:27.583Z,101083.71
2019-03-19T05:59:30.805Z,101088.14
2019-03-19T06:02:34.094Z,101091.80
2019-03-19T06:05:37.805Z,101109.36
2019-03-19T06:08:40.749Z,101111.80
2019-03-19T06:11:43.702Z,101121.33
2019-03-19T06:14:46.909Z,101116.52
2019-03-19T06:17:50.167Z,101116.60
2019-03-19T06:20:53.339Z,101120.67
2019-03-19T06:23:56.292Z,101111.09
2019-03-19T06:26:59.265Z,101112.02
2019-03-19T06:30:04.012Z,101123.17
2019-03-19T06:33:07.509Z,101121.27
2019-03-19T06:36:10.536Z,101128.33
2019-03-19T06:39:14.756Z,101133.52
2019-03-19T06:42:18.070Z,101138.25
2019-03-19T06:45:23.107Z,101147.45
2019-03-19T06:48:26.998Z,101141.01
2019-03-19T06:51:30.313Z,101148.67
2019-03-19T06:54:33.234Z,101154.70
2019-03-19T06:57:39.389Z,101151.53
2019-03-19T07:00:42.054Z,101160.13
2019-03-19T07:03:45.745Z,101159.84
2019-03-19T07:06:49.021Z,101167.09
2019-03-19T07:09:52.430Z,101171.16
2019-03-19T07:12:55.639Z,101177.88
2019-03-19T07:15:58.570Z,101181.25
2019-03-19T07:19:01.502Z,101184.25
2019-03-19T07:22:05.115Z,101192.01
2019-03-19T07:25:08.720Z,101195.14
2019-03-19T07:28:21.740Z,101194.72
2019-03-19T07:31:17.289Z,101192.18
2019-03-19T07:34:20.906Z,101195.97
2019-03-19T07:37:24.750Z,101190.66
2019-03-19T07:40:27.739Z,101190.36
2019-03-19T07:43:31.081Z,101190.02
2019-03-19T07:46:34.028Z,101203.70
2019-03-19T07:49:36.999Z,101201.16
2019-03-19T07:52:40.267Z,101209.72
2019-03-19T07:55:43.639Z,101208.02
2019-03-19T07:58:46.935Z,101205.95
2019-03-19T08:01:49.909Z,101209.85
2019-03-19T08:04:52.932Z,101211.69
2019-03-19T08:07:56.231Z,101212.91
2019-03-19T08:10:59.573Z,101219.08
2019-03-19T08:14:02.761Z,101215.20
2019-03-19T08:17:05.678Z,101211.39
2019-03-19T08:20:10.278Z,101222.59
2019-03-19T08:23:13.320Z,101226.63
2019-03-19T08:26:16.244Z,101238.97
2019-03-19T08:29:19.165Z,101241.34
2019-03-19T08:32:22.804Z,101234.89
2019-03-19T08:35:25.714Z,101235.95
2019-03-19T08:38:28.644Z,101235.09
2019-03-19T08:41:33.096Z,101241.14
2019-03-19T08:44:36.720Z,101238.53
2019-03-19T08:47:39.673Z,101246.22
2019-03-19T08:50:42.900Z,101252.95
2019-03-19T08:53:45.934Z,101259.83
2019-03-19T08:56:49.295Z,101254.72
2019-03-19T08:59:57.162Z,101261.63
2019-03-19T09:03:02.764Z,101269.09
2019-03-19T09:06:06.325Z,101264.96
2019-03-19T09:09:09.663Z,101268.34
2019-03-19T09:12:12.581Z,101264.88
2019-03-19T09:15:15.589Z,101269.95
2019-03-19T09:18:18.911Z,101269.34
2019-03-19T09:21:22.085Z,101270.84
2019-03-19T09:24:26.495Z,101268.66
2019-03-19T09:27:29.427Z,101272.37
2019-03-19T09:30:32.755Z,101276.12
2019-03-19T09:33:35.980Z,101280.87
2019-03-19T09:36:38.893Z,101283.86
2019-03-19T09:39:42.216Z,101286.19
2019-03-19T09:42:45.704Z,101281.37
2019-03-19T09:45:49.216Z,101281.84
2019-03-19T09:48:52.173Z,101290.72
2019-03-19T09:51:55.444Z,101284.20
2019-03-19T09:54:59.780Z,101285.23
2019-03-19T09:58:03.034Z,101277.08
2019-03-19T10:01:06.320Z,101279.42
2019-03-19T10:04:09.247Z,101284.70
2019-03-19T10:07:12.184Z,101296.21
2019-03-19T10:10:17.513Z,101295.63
2019-03-19T10:13:20.433Z,101287.36
2019-03-19T10:16:23.704Z,101295.72
2019-03-19T10:19:27.042Z,101296.50
2019-03-19T10:22:30.649Z,101300.88
2019-03-19T10:25:33.580Z,101294.87
2019-03-19T10:28:37.067Z,101308.67
2019-03-19T10:31:41.933Z,101301.22
2019-03-19T10:34:44.864Z,101300.77
2019-03-19T10:37:47.921Z,101298.58
2019-03-19T10:40:51.684Z,101292.39
2019-03-19T10:43:55.628Z,101294.61
2019-03-19T10:46:58.939Z,101291.53
2019-03-19T10:50:01.958Z,101305.20
2019-03-19T10:53:06.447Z,101299.45
2019-03-19T10:56:10.071Z,101302.95
2019-03-19T10:59:13.639Z,101305.89
2019-03-19T11:02:17.646Z,101303.82
2019-03-19T11:05:20.898Z,101307.41
2019-03-19T11:08:23.925Z,101308.26
2019-03-19T11:11:27.140Z,101310.92
2019-03-19T11:14:30.072Z,101309.42
2019-03-19T11:17:34.115Z,101312.66
2019-03-19T11:20:37.444Z,101320.74
2019-03-19T11:23:40.364Z,101320.20
2019-03-19T11:26:44.670Z,101317.48
2019-03-19T11:29:47.575Z,101313.00
2019-03-19T11:32:51.427Z,101320.62
2019-03-19T11:35:54.335Z,101319.22
2019-03-19T11:38:57.634Z,101316.83
2019-03-19T11:42:00.612Z,101312.35
2019-03-19T11:45:04.760Z,101312.33
2019-03-19T11:48:08.137Z,101316.40
2019-03-19T11:51:11.417Z,101320.38
2019-03-19T11:54:15.825Z,101321.98
2019-03-19T11:57:19.054Z,101303.63
2019-03-19T12:00:33.034Z,101313.55
2019-03-19T12:03:37.602Z,101308.94
2019-03-19T12:06:41.238Z,101314.31
2019-03-19T12:09:44.933Z,101297.94
2019-03-19T12:12:47.907Z,101285.97
2019-03-19T12:15:51.290Z,101297.09
2019-03-19T12:18:54.989Z,101293.66
2019-03-19T12:21:58.031Z,101308.09
2019-03-19T12:25:01.222Z,101305.34
2019-03-19T12:28:04.672Z,101301.42
2019-03-19T12:31:07.575Z,101295.30
2019-03-19T12:34:10.898Z,101301.43
2019-03-19T12:37:13.825Z,101300.34
2019-03-19T12:40:16.775Z,101300.34
2019-03-19T12:43:20.840Z,101302.58
2019-03-19T12:46:24.060Z,101307.73
2019-03-19T12:49:27.325Z,101307.36
2019-03-19T12:52:30.637Z,101294.87
2019-03-19T12:55:33.926Z,101294.50
2019-03-19T12:58:36.968Z,101301.28
2019-03-19T13:01:39.985Z,101299.38
2019-03-19T13:04:42.925Z,101299.00
2019-03-19T13:07:46.236Z,101295.02
2019-03-19T13:10:49.183Z,101302.07
2019-03-19T13:13:52.487Z,101304.41
2019-03-19T13:16:55.802Z,101301.53
2019-03-19T13:19:59.038Z,101294.14
2019-03-19T13:23:01.976Z,101298.41
2019-03-19T13:26:04.879Z,101293.39
2019-03-19T13:29:07.828Z,101291.73
2019-03-19T13:32:10.747Z,101302.89
2019-03-19T13:35:13.904Z,101304.89
2019-03-19T13:38:17.930Z,101306.17
2019-03-19T13:41:21.472Z,101303.38
2019-03-19T13:44:24.737Z,101309.14
2019-03-19T13:47:27.783Z,101299.80
2019-03-19T13:50:31.017Z,101309.20
2019-03-19T13:53:33.936Z,101306.52
2019-03-19T13:56:37.215Z,101298.48
2019-03-19T13:59:40.836Z,101300.05
2019-03-19T14:02:44.051Z,101299.07
2019-03-19T14:05:47.273Z,101312.36
2019-03-19T14:08:50.556Z,101308.91
2019-03-19T14:11:53.468Z,101313.84
2019-03-19T14:14:56.680Z,101304.22
2019-03-19T14:17:59.949Z,101306.89
2019-03-19T14:21:03.346Z,101303.35
2019-03-19T14:24:06.287Z,101299.27
2019-03-19T14:27:09.876Z,101298.13
2019-03-19T14:30:15.323Z,101302.67
2019-03-19T14:33:19.560Z,101298.72
2019-03-19T14:36:22.894Z,101298.52
2019-03-19T14:39:26.311Z,101300.66
2019-03-19T14:42:29.547Z,101290.03
2019-03-19T14:45:33.493Z,101300.94
2019-03-19T14:48:36.797Z,101295.98
2019-03-19T14:51:39.713Z,101308.57
2019-03-19T14:54:43.032Z,101314.39
2019-03-19T14:57:46.325Z,101317.79
2019-03-19T15:00:49.592Z,101308.91
2019-03-19T15:03:53.080Z,101312.08
2019-03-19T15:06:56.019Z,101312.12
2019-03-19T15:09:58.970Z,101309.94
2019-03-19T15:13:02.560Z,101311.75
2019-03-19T15:16:05.838Z,101314.41
2019-03-19T15:19:09.780Z,101308.71
2019-03-19T15:22:13.107Z,101308.70
2019-03-19T15:25:16.577Z,101298.52
2019-03-19T15:28:20.159Z,101304.54
2019-03-19T15:31:29.830Z,101303.73
2019-03-19T15:34:29.155Z,101297.64
2019-03-19T15:37:32.091Z,101300.30
2019-03-19T15:40:35.021Z,101301.63
2019-03-19T15:43:38.682Z,101306.94
2019-03-19T15:46:41.875Z,101301.66
2019-03-19T15:49:44.800Z,101304.73
2019-03-19T15:52:47.822Z,101300.34
2019-03-19T15:55:50.744Z,101296.28
2019-03-19T15:58:53.654Z,101286.62
2019-03-19T16:01:56.710Z,101299.00
2019-03-19T16:04:59.621Z,101293.95
2019-03-19T16:08:02.927Z,101296.48
2019-03-19T16:11:06.211Z,101304.56
2019-03-19T16:14:09.485Z,101304.61
2019-03-19T16:17:15.720Z,101308.23
2019-03-19T16:20:18.727Z,101310.85
2019-03-19T16:23:22.328Z,101313.95
2019-03-19T16:26:25.297Z,101323.55
2019-03-19T16:29:28.933Z,101316.52
2019-03-19T16:32:32.272Z,101316.13
2019-03-19T16:35:35.218Z,101313.97
2019-03-19T16:38:38.541Z,101321.91
2019-03-19T16:41:42.226Z,101325.44
2019-03-19T16:44:45.197Z,101315.33
2019-03-19T16:47:48.612Z,101324.16
2019-03-19T16:50:51.895Z,101333.42
2019-03-19T16:53:55.819Z,101335.18
2019-03-19T16:56:58.967Z,101331.67
2019-03-19T17:00:01.930Z,101338.71
2019-03-19T17:03:05.744Z,101335.63
2019-03-19T17:06:09.094Z,101339.56
2019-03-19T17:09:12.029Z,101350.14
2019-03-19T17:12:15.039Z,101351.94
2019-03-19T17:15:18.661Z,101355.91
2019-03-19T17:18:21.626Z,101358.51
2019-03-19T17:21:25.291Z,101360.28
2019-03-19T17:24:29.141Z,101363.36
2019-03-19T17:27:33.743Z,101366.45
2019-03-19T17:30:37.045Z,101367.28
2019-03-19T17:33:40.095Z,101376.10
2019-03-19T17:36:43.313Z,101377.38
2019-03-19T17:39:46.893Z,101374.27
2019-03-19T17:42:50.228Z,101371.11
2019-03-19T17:45:54.572Z,101372.42
2019-03-19T17:48:57.801Z,101372.88
2019-03-19T17:52:01.116Z,101379.91
2019-03-19T17:55:05.460Z,101386.93
2019-03-19T17:58:10.136Z,101381.60
2019-03-19T18:01:17.631Z,101391.75
2019-03-19T18:04:18.885Z,101391.73
2019-03-19T18:07:22.486Z,101393.47
2019-03-19T18:10:25.436Z,101403.16
2019-03-19T18:13:28.668Z,101395.69
2019-03-19T18:16:31.622Z,101405.33
2019-03-19T18:19:34.892Z,101404.86
2019-03-19T18:22:39.134Z,101408.39
2019-03-19T18:25:42.411Z,101408.86
2019-03-19T18:28:45.492Z,101413.25
2019-03-19T18:31:48.880Z,101411.92
2019-03-19T18:34:54.179Z,101407.93
2019-03-19T18:37:57.664Z,101414.05
2019-03-19T18:41:00.607Z,101412.76
2019-03-19T18:44:03.889Z,101412.30
2019-03-19T18:47:06.826Z,101413.56
2019-03-19T18:50:11.707Z,101410.45
2019-03-19T18:53:15.101Z,101411.70
2019-03-19T18:56:18.081Z,101415.15
2019-03-19T18:59:21.847Z,101417.32
2019-03-19T19:02:24.817Z,101424.30
2019-03-19T19:05:28.087Z,101429.48
2019-03-19T19:08:31.029Z,101441.66
2019-03-19T19:11:34.615Z,101443.00
2019-03-19T19:14:38.855Z,101448.62
2019-03-19T19:17:42.419Z,101449.02
2019-03-19T19:20:45.735Z,101452.86
2019-03-19T19:23:49.087Z,101463.25
2019-03-19T19:26:52.284Z,101472.00
2019-03-19T19:29:56.240Z,101473.16
2019-03-19T19:33:01.941Z,101474.94
2019-03-19T19:36:05.152Z,101482.69
2019-03-19T19:39:08.209Z,101485.27
2019-03-19T19:42:11.190Z,101487.06
2019-03-19T19:45:14.257Z,101493.94
2019-03-19T19:48:18.626Z,101497.72
2019-03-19T19:51:21.998Z,101499.53
2019-03-19T19:54:25.318Z,101486.79
2019-03-19T19:57:28.359Z,101497.27
2019-03-19T20:00:31.419Z,101500.47
2019-03-19T20:03:34.366Z,101500.33
2019-03-19T20:06:37.613Z,101506.42
2019-03-19T20:09:41.193Z,101517.50
2019-03-19T20:12:44.953Z,101514.35
2019-03-19T20:15:48.578Z,101514.64
2019-03-19T20:18:52.222Z,101521.51
2019-03-19T20:21:55.658Z,101519.25
2019-03-19T20:24:59.079Z,101526.93
2019-03-19T20:28:02.208Z,101529.66
2019-03-19T20:31:05.635Z,101526.88
2019-03-19T20:34:09.486Z,101525.55
2019-03-19T20:37:12.725Z,101532.56
2019-03-19T20:40:16.232Z,101535.38
2019-03-19T20:43:19.422Z,101540.76
2019-03-19T20:46:22.359Z,101530.09
2019-03-19T20:49:27.065Z,101538.32
2019-03-19T20:52:30.799Z,101542.55
2019-03-19T20:55:34.145Z,101540.56
2019-03-19T20:58:43.523Z,101531.41
2019-03-19T21:01:43.737Z,101535.98
2019-03-19T21:04:46.787Z,101536.41
2019-03-19T21:07:50.044Z,101532.59
2019-03-19T21:10:53.003Z,101538.50
2019-03-19T21:13:55.912Z,101543.34
2019-03-19T21:17:00.326Z,101554.33
2019-03-19T21:20:05.310Z,101562.89
2019-03-19T21:23:08.683Z,101559.44
2019-03-19T21:26:11.662Z,101564.77
2019-03-19T21:29:14.576Z,101569.93
2019-03-19T21:32:17.803Z,101577.03
2019-03-19T21:35:20.926Z,101575.84
2019-03-19T21:38:24.012Z,101572.37
2019-03-19T21:41:27.217Z,101580.94
2019-03-19T21:44:30.308Z,101579.78
2019-03-19T21:47:33.273Z,101580.20
2019-03-19T21:50:36.928Z,101584.85
2019-03-19T21:53:40.641Z,101578.48
2019-03-19T21:56:43.911Z,101584.94
2019-03-19T21:59:47.878Z,101587.14
2019-03-19T22:02:51.538Z,101577.76
2019-03-19T22:05:54.963Z,101572.50
2019-03-19T22:08:58.699Z,101574.32
2019-03-19T22:12:02.107Z,101571.02
2019-03-19T22:15:11.996Z,101578.27
2019-03-19T22:18:15.483Z,101555.94
2019-03-19T22:21:18.498Z,101572.80
2019-03-19T22:24:22.034Z,101573.31
2019-03-19T22:27:25.726Z,101580.56
2019-03-19T22:30:29.347Z,101575.05
2019-03-19T22:33:33.545Z,101577.93
2019-03-19T22:36:37.104Z,101575.17
2019-03-19T22:39:42.688Z,101576.91
2019-03-19T22:42:46.752Z,101577.80
2019-03-19T22:45:50.141Z,101580.22
2019-03-19T22:48:53.464Z,101579.84
2019-03-19T22:51:57.794Z,101581.02
2019-03-19T22:55:01.103Z,101581.95
2019-03-19T22:58:04.048Z,101586.86
2019-03-19T23:01:07.285Z,101587.17
2019-03-19T23:04:12.796Z,101585.45
2019-03-19T23:07:15.722Z,101592.30
2019-03-19T23:10:18.935Z,101594.59
2019-03-19T23:13:22.652Z,101595.42
2019-03-19T23:16:25.993Z,101595.21
2019-03-19T23:19:29.691Z,101599.17
2019-03-19T23:22:32.762Z,101596.32
2019-03-19T23:25:35.740Z,101594.22
2019-03-19T23:28:39.772Z,101595.84
2019-03-19T23:31:43.798Z,101584.88
2019-03-19T23:34:47.078Z,101585.16
2019-03-19T23:37:50.106Z,101575.41
2019-03-19T23:40:53.761Z,101576.95
2019-03-19T23:43:57.095Z,101579.40
2019-03-19T23:47:00.731Z,101570.29
2019-03-19T23:50:05.368Z,101579.57
2019-03-19T23:53:08.665Z,101577.16
2019-03-19T23:56:12.032Z,101580.70
2019-03-19T23:59:15.052Z,101583.34
